sensor_id;sensor_type;location;lat;lon;timestamp;P1;durP1;ratioP1;P2;durP2;ratioP2
7823;SDS011;3957;48.61947800;9.05303100;2023-08-17T00:01:13;3.70;;;3.35;;
7823;SDS011;3957;48.61947800;9.05303100;2023-08-17T00:02:15;4.47;;;2.78;;
7823;SDS011;3957;48.61947800;9.05303100;2023-08-17T00:03:16;5.68;;;3.42;;
7823;SDS011;3957;48.61947800;9.05303100;2023-08-17T00:04:18;6.80;;;3.75;;
7823;SDS011;3957;48.61947800;9.05303100;2023-08-17T00:05:20;4.80;;;3.90;;
7823;SDS011;3957;48.61947800;9.05303100;2023-08-17T00:06:21;5.85;;;3.83;;
7823;SDS011;3957;48.61947800;9.05303100;2023-08-17T00:07:23;4.60;;;3.83;;
7823;SDS011;3957;48.61947800;9.05303100;2023-08-17T00:08:25;4.57;;;3.40;;
7823;SDS011;3957;48.61947800;9.05303100;2023-08-17T00:09:26;8.57;;;3.95;;
7823;SDS011;3957;48.61947800;9.05303100;2023-08-17T00:10:28;5.10;;;3.20;;
7823;SDS011;3957;48.61947800;9.05303100;2023-08-17T00:11:29;5.93;;;3.50;;
7823;SDS011;3957;48.61947800;9.05303100;2023-08-17T00:12:31;10.63;;;4.53;;
7823;SDS011;3957;48.61947800;9.05303100;2023-08-17T00:13:32;7.43;;;4.18;;
7823;SDS011;3957;48.61947800;9.05303100;2023-08-17T00:14:34;6.50;;;4.05;;
7823;SDS011;3957;48.61947800;9.05303100;2023-08-17T00:15:36;4.72;;;3.72;;
7823;SDS011;3957;48.61947800;9.05303100;2023-08-17T00:16:37;4.53;;;3.60;;
7823;SDS011;3957;48.61947800;9.05303100;2023-08-17T00:17:39;3.88;;;3.47;;
7823;SDS011;3957;48.61947800;9.05303100;2023-08-17T00:18:41;4.68;;;3.50;;
7823;SDS011;3957;48.61947800;9.05303100;2023-08-17T00:19:42;4.63;;;3.42;;
7823;SDS011;3957;48.61947800;9.05303100;2023-08-17T00:20:44;4.30;;;3.58;;
7823;SDS011;3957;48.61947800;9.05303100;2023-08-17T00:21:45;4.05;;;3.55;;
7823;SDS011;3957;48.61947800;9.05303100;2023-08-17T00:22:47;3.85;;;3.40;;
7823;SDS011;3957;48.61947800;9.05303100;2023-08-17T00:23:48;4.22;;;3.70;;
7823;SDS011;3957;48.61947800;9.05303100;2023-08-17T00:24:50;5.10;;;3.63;;
7823;SDS011;3957;48.61947800;9.05303100;2023-08-17T00:25:51;6.63;;;3.55;;
7823;SDS011;3957;48.61947800;9.05303100;2023-08-17T00:26:53;6.50;;;3.90;;
7823;SDS011;3957;48.61947800;9.05303100;2023-08-17T00:27:54;5.97;;;4.38;;
7823;SDS011;3957;48.61947800;9.05303100;2023-08-17T00:28:56;7.72;;;4.70;;
7823;SDS011;3957;48.61947800;9.05303100;2023-08-17T00:29:58;6.88;;;3.88;;
7823;SDS011;3957;48.61947800;9.05303100;2023-08-17T00:31:00;4.65;;;3.70;;
7823;SDS011;3957;48.61947800;9.05303100;2023-08-17T00:32:02;4.82;;;4.00;;
7823;SDS011;3957;48.61947800;9.05303100;2023-08-17T00:33:04;5.22;;;3.78;;
7823;SDS011;3957;48.61947800;9.05303100;2023-08-17T00:34:06;6.18;;;4.07;;
7823;SDS011;3957;48.61947800;9.05303100;2023-08-17T00:35:08;4.63;;;3.95;;
7823;SDS011;3957;48.61947800;9.05303100;2023-08-17T00:36:09;7.75;;;4.00;;
7823;SDS011;3957;48.61947800;9.05303100;2023-08-17T00:37:11;4.38;;;3.58;;
7823;SDS011;3957;48.61947800;9.05303100;2023-08-17T00:38:13;4.70;;;3.70;;
7823;SDS011;3957;48.61947800;9.05303100;2023-08-17T00:39:14;4.45;;;3.60;;
7823;SDS011;3957;48.61947800;9.05303100;2023-08-17T00:40:16;5.10;;;3.72;;
7823;SDS011;3957;48.61947800;9.05303100;2023-08-17T00:41:17;5.20;;;4.18;;
7823;SDS011;3957;48.61947800;9.05303100;2023-08-17T00:42:19;6.57;;;4.07;;
7823;SDS011;3957;48.61947800;9.05303100;2023-08-17T00:43:20;5.38;;;4.22;;
7823;SDS011;3957;48.61947800;9.05303100;2023-08-17T00:44:22;5.90;;;4.32;;
7823;SDS011;3957;48.61947800;9.05303100;2023-08-17T00:45:24;5.30;;;3.85;;
7823;SDS011;3957;48.61947800;9.05303100;2023-08-17T00:46:26;3.92;;;3.50;;
7823;SDS011;3957;48.61947800;9.05303100;2023-08-17T00:47:30;6.65;;;3.50;;
7823;SDS011;3957;48.61947800;9.05303100;2023-08-17T00:48:32;4.32;;;3.50;;
7823;SDS011;3957;48.61947800;9.05303100;2023-08-17T00:49:34;3.83;;;3.42;;
7823;SDS011;3957;48.61947800;9.05303100;2023-08-17T00:50:36;6.40;;;3.90;;
7823;SDS011;3957;48.61947800;9.05303100;2023-08-17T00:51:38;4.93;;;3.85;;
7823;SDS011;3957;48.61947800;9.05303100;2023-08-17T00:52:41;4.70;;;4.18;;
7823;SDS011;3957;48.61947800;9.05303100;2023-08-17T00:53:44;5.18;;;4.28;;
7823;SDS011;3957;48.61947800;9.05303100;2023-08-17T00:54:46;6.80;;;4.05;;
7823;SDS011;3957;48.61947800;9.05303100;2023-08-17T00:55:47;4.53;;;4.05;;
7823;SDS011;3957;48.61947800;9.05303100;2023-08-17T00:56:50;5.60;;;4.45;;
7823;SDS011;3957;48.61947800;9.05303100;2023-08-17T00:57:53;5.07;;;4.22;;
7823;SDS011;3957;48.61947800;9.05303100;2023-08-17T00:58:56;6.80;;;4.05;;
7823;SDS011;3957;48.61947800;9.05303100;2023-08-17T00:59:58;5.13;;;4.25;;
7823;SDS011;3957;48.61947800;9.05303100;2023-08-17T01:01:06;4.70;;;3.90;;
7823;SDS011;3957;48.61947800;9.05303100;2023-08-17T01:02:10;6.68;;;4.20;;
7823;SDS011;3957;48.61947800;9.05303100;2023-08-17T01:03:11;4.40;;;4.00;;
7823;SDS011;3957;48.61947800;9.05303100;2023-08-17T01:04:13;5.05;;;4.07;;
7823;SDS011;3957;48.61947800;9.05303100;2023-08-17T01:05:15;5.00;;;3.90;;
7823;SDS011;3957;48.61947800;9.05303100;2023-08-17T01:06:17;5.63;;;3.90;;
7823;SDS011;3957;48.61947800;9.05303100;2023-08-17T01:07:19;6.60;;;4.03;;
7823;SDS011;3957;48.61947800;9.05303100;2023-08-17T01:08:21;6.40;;;3.90;;
7823;SDS011;3957;48.61947800;9.05303100;2023-08-17T01:09:22;6.03;;;4.13;;
7823;SDS011;3957;48.61947800;9.05303100;2023-08-17T01:10:26;5.03;;;3.42;;
7823;SDS011;3957;48.61947800;9.05303100;2023-08-17T01:11:41;4.20;;;3.58;;
7823;SDS011;3957;48.61947800;9.05303100;2023-08-17T01:12:53;4.40;;;3.75;;
7823;SDS011;3957;48.61947800;9.05303100;2023-08-17T01:14:20;4.13;;;3.47;;
7823;SDS011;3957;48.61947800;9.05303100;2023-08-17T01:15:32;4.25;;;3.78;;
7823;SDS011;3957;48.61947800;9.05303100;2023-08-17T01:16:43;5.20;;;4.07;;
7823;SDS011;3957;48.61947800;9.05303100;2023-08-17T01:17:56;5.65;;;3.90;;
7823;SDS011;3957;48.61947800;9.05303100;2023-08-17T01:19:01;5.78;;;3.63;;
7823;SDS011;3957;48.61947800;9.05303100;2023-08-17T01:20:09;4.90;;;3.90;;
7823;SDS011;3957;48.61947800;9.05303100;2023-08-17T01:21:13;6.47;;;4.22;;
7823;SDS011;3957;48.61947800;9.05303100;2023-08-17T01:22:20;4.70;;;3.95;;
7823;SDS011;3957;48.61947800;9.05303100;2023-08-17T01:23:24;5.43;;;4.03;;
7823;SDS011;3957;48.61947800;9.05303100;2023-08-17T01:24:25;5.50;;;4.38;;
7823;SDS011;3957;48.61947800;9.05303100;2023-08-17T01:25:27;6.85;;;4.38;;
7823;SDS011;3957;48.61947800;9.05303100;2023-08-17T01:26:29;6.30;;;3.85;;
7823;SDS011;3957;48.61947800;9.05303100;2023-08-17T01:27:33;6.70;;;4.55;;
7823;SDS011;3957;48.61947800;9.05303100;2023-08-17T01:28:38;6.25;;;4.10;;
7823;SDS011;3957;48.61947800;9.05303100;2023-08-17T01:29:41;5.80;;;4.30;;
7823;SDS011;3957;48.61947800;9.05303100;2023-08-17T01:33:08;5.85;;;4.45;;
7823;SDS011;3957;48.61947800;9.05303100;2023-08-17T01:34:13;6.35;;;4.38;;
7823;SDS011;3957;48.61947800;9.05303100;2023-08-17T01:35:28;5.60;;;4.53;;
7823;SDS011;3957;48.61947800;9.05303100;2023-08-17T01:36:36;4.30;;;3.90;;
7823;SDS011;3957;48.61947800;9.05303100;2023-08-17T01:37:41;4.72;;;4.05;;
7823;SDS011;3957;48.61947800;9.05303100;2023-08-17T01:38:44;4.30;;;3.90;;
7823;SDS011;3957;48.61947800;9.05303100;2023-08-17T01:39:47;5.40;;;4.07;;
7823;SDS011;3957;48.61947800;9.05303100;2023-08-17T01:40:55;4.70;;;3.70;;
7823;SDS011;3957;48.61947800;9.05303100;2023-08-17T01:41:58;4.38;;;3.85;;
7823;SDS011;3957;48.61947800;9.05303100;2023-08-17T01:43:02;5.10;;;3.42;;
7823;SDS011;3957;48.61947800;9.05303100;2023-08-17T01:44:04;5.13;;;4.20;;
7823;SDS011;3957;48.61947800;9.05303100;2023-08-17T01:45:07;6.30;;;4.50;;
7823;SDS011;3957;48.61947800;9.05303100;2023-08-17T01:46:09;5.75;;;4.68;;
7823;SDS011;3957;48.61947800;9.05303100;2023-08-17T01:47:11;6.60;;;4.72;;
7823;SDS011;3957;48.61947800;9.05303100;2023-08-17T01:48:12;6.10;;;4.60;;
7823;SDS011;3957;48.61947800;9.05303100;2023-08-17T01:49:14;5.55;;;4.57;;
7823;SDS011;3957;48.61947800;9.05303100;2023-08-17T01:50:16;7.57;;;4.78;;
7823;SDS011;3957;48.61947800;9.05303100;2023-08-17T01:51:18;7.25;;;4.80;;
7823;SDS011;3957;48.61947800;9.05303100;2023-08-17T01:52:23;8.70;;;5.45;;
7823;SDS011;3957;48.61947800;9.05303100;2023-08-17T01:53:27;8.82;;;5.40;;
7823;SDS011;3957;48.61947800;9.05303100;2023-08-17T01:54:29;8.57;;;5.95;;
7823;SDS011;3957;48.61947800;9.05303100;2023-08-17T01:55:30;8.05;;;5.95;;
7823;SDS011;3957;48.61947800;9.05303100;2023-08-17T01:56:32;9.50;;;6.53;;
7823;SDS011;3957;48.61947800;9.05303100;2023-08-17T01:57:34;9.27;;;5.97;;
7823;SDS011;3957;48.61947800;9.05303100;2023-08-17T01:58:37;7.65;;;6.05;;
7823;SDS011;3957;48.61947800;9.05303100;2023-08-17T01:59:39;10.20;;;6.05;;
7823;SDS011;3957;48.61947800;9.05303100;2023-08-17T02:00:40;7.85;;;5.88;;
7823;SDS011;3957;48.61947800;9.05303100;2023-08-17T02:01:43;10.07;;;5.75;;
7823;SDS011;3957;48.61947800;9.05303100;2023-08-17T02:02:44;9.57;;;6.93;;
7823;SDS011;3957;48.61947800;9.05303100;2023-08-17T02:03:46;10.13;;;6.43;;
7823;SDS011;3957;48.61947800;9.05303100;2023-08-17T02:04:48;11.25;;;7.40;;
7823;SDS011;3957;48.61947800;9.05303100;2023-08-17T02:05:50;14.15;;;8.07;;
7823;SDS011;3957;48.61947800;9.05303100;2023-08-17T02:06:51;14.52;;;7.18;;
7823;SDS011;3957;48.61947800;9.05303100;2023-08-17T02:07:53;9.10;;;6.47;;
7823;SDS011;3957;48.61947800;9.05303100;2023-08-17T02:08:55;13.13;;;6.78;;
7823;SDS011;3957;48.61947800;9.05303100;2023-08-17T02:09:57;7.00;;;5.25;;
7823;SDS011;3957;48.61947800;9.05303100;2023-08-17T02:10:59;5.88;;;4.70;;
7823;SDS011;3957;48.61947800;9.05303100;2023-08-17T02:12:01;6.57;;;5.30;;
7823;SDS011;3957;48.61947800;9.05303100;2023-08-17T02:13:03;8.70;;;5.97;;
7823;SDS011;3957;48.61947800;9.05303100;2023-08-17T02:14:18;10.02;;;6.60;;
7823;SDS011;3957;48.61947800;9.05303100;2023-08-17T02:15:20;9.98;;;6.90;;
7823;SDS011;3957;48.61947800;9.05303100;2023-08-17T02:16:22;12.25;;;7.22;;
7823;SDS011;3957;48.61947800;9.05303100;2023-08-17T02:17:23;9.80;;;7.20;;
7823;SDS011;3957;48.61947800;9.05303100;2023-08-17T02:18:26;10.18;;;6.25;;
7823;SDS011;3957;48.61947800;9.05303100;2023-08-17T02:19:27;10.18;;;7.00;;
7823;SDS011;3957;48.61947800;9.05303100;2023-08-17T02:20:29;9.00;;;5.95;;
7823;SDS011;3957;48.61947800;9.05303100;2023-08-17T02:21:30;9.40;;;5.72;;
7823;SDS011;3957;48.61947800;9.05303100;2023-08-17T02:22:32;8.60;;;5.25;;
7823;SDS011;3957;48.61947800;9.05303100;2023-08-17T02:23:33;8.30;;;5.97;;
7823;SDS011;3957;48.61947800;9.05303100;2023-08-17T02:24:35;8.95;;;6.28;;
7823;SDS011;3957;48.61947800;9.05303100;2023-08-17T02:25:39;7.70;;;5.80;;
7823;SDS011;3957;48.61947800;9.05303100;2023-08-17T02:26:41;7.72;;;5.72;;
7823;SDS011;3957;48.61947800;9.05303100;2023-08-17T02:27:43;7.85;;;6.20;;
7823;SDS011;3957;48.61947800;9.05303100;2023-08-17T02:28:44;7.70;;;5.82;;
7823;SDS011;3957;48.61947800;9.05303100;2023-08-17T02:29:46;10.88;;;5.85;;
7823;SDS011;3957;48.61947800;9.05303100;2023-08-17T02:30:48;11.40;;;6.40;;
7823;SDS011;3957;48.61947800;9.05303100;2023-08-17T02:31:50;8.10;;;5.70;;
7823;SDS011;3957;48.61947800;9.05303100;2023-08-17T02:32:51;6.47;;;5.15;;
7823;SDS011;3957;48.61947800;9.05303100;2023-08-17T02:33:53;7.07;;;5.45;;
7823;SDS011;3957;48.61947800;9.05303100;2023-08-17T02:34:59;7.53;;;5.10;;
7823;SDS011;3957;48.61947800;9.05303100;2023-08-17T02:36:01;7.30;;;5.35;;
7823;SDS011;3957;48.61947800;9.05303100;2023-08-17T02:37:03;9.35;;;5.75;;
7823;SDS011;3957;48.61947800;9.05303100;2023-08-17T02:38:04;10.33;;;5.70;;
7823;SDS011;3957;48.61947800;9.05303100;2023-08-17T02:39:06;8.63;;;5.82;;
7823;SDS011;3957;48.61947800;9.05303100;2023-08-17T02:40:08;9.25;;;6.78;;
7823;SDS011;3957;48.61947800;9.05303100;2023-08-17T02:41:10;12.20;;;6.72;;
7823;SDS011;3957;48.61947800;9.05303100;2023-08-17T02:42:11;9.43;;;6.30;;
7823;SDS011;3957;48.61947800;9.05303100;2023-08-17T02:43:13;9.85;;;5.80;;
7823;SDS011;3957;48.61947800;9.05303100;2023-08-17T02:44:14;7.72;;;5.40;;
7823;SDS011;3957;48.61947800;9.05303100;2023-08-17T02:45:16;11.77;;;7.03;;
7823;SDS011;3957;48.61947800;9.05303100;2023-08-17T02:46:17;10.43;;;6.65;;
7823;SDS011;3957;48.61947800;9.05303100;2023-08-17T02:47:19;7.50;;;5.63;;
7823;SDS011;3957;48.61947800;9.05303100;2023-08-17T02:48:22;7.43;;;5.00;;
7823;SDS011;3957;48.61947800;9.05303100;2023-08-17T02:49:23;8.50;;;5.68;;
7823;SDS011;3957;48.61947800;9.05303100;2023-08-17T02:50:25;9.93;;;6.40;;
7823;SDS011;3957;48.61947800;9.05303100;2023-08-17T02:51:27;8.60;;;6.07;;
7823;SDS011;3957;48.61947800;9.05303100;2023-08-17T02:52:28;8.13;;;5.53;;
7823;SDS011;3957;48.61947800;9.05303100;2023-08-17T02:53:30;13.63;;;6.97;;
7823;SDS011;3957;48.61947800;9.05303100;2023-08-17T02:54:31;12.07;;;7.80;;
7823;SDS011;3957;48.61947800;9.05303100;2023-08-17T02:55:33;16.17;;;8.03;;
7823;SDS011;3957;48.61947800;9.05303100;2023-08-17T02:56:35;13.05;;;7.78;;
7823;SDS011;3957;48.61947800;9.05303100;2023-08-17T02:57:36;10.30;;;7.10;;
7823;SDS011;3957;48.61947800;9.05303100;2023-08-17T02:58:38;8.88;;;6.03;;
7823;SDS011;3957;48.61947800;9.05303100;2023-08-17T02:59:43;12.60;;;7.60;;
7823;SDS011;3957;48.61947800;9.05303100;2023-08-17T03:00:45;14.43;;;7.88;;
7823;SDS011;3957;48.61947800;9.05303100;2023-08-17T03:01:47;14.48;;;7.72;;
7823;SDS011;3957;48.61947800;9.05303100;2023-08-17T03:02:49;13.45;;;8.75;;
7823;SDS011;3957;48.61947800;9.05303100;2023-08-17T03:03:51;18.98;;;9.85;;
7823;SDS011;3957;48.61947800;9.05303100;2023-08-17T03:04:52;13.35;;;9.40;;
7823;SDS011;3957;48.61947800;9.05303100;2023-08-17T03:05:54;17.33;;;9.32;;
7823;SDS011;3957;48.61947800;9.05303100;2023-08-17T03:06:55;13.57;;;8.85;;
7823;SDS011;3957;48.61947800;9.05303100;2023-08-17T03:07:57;12.65;;;8.50;;
7823;SDS011;3957;48.61947800;9.05303100;2023-08-17T03:08:58;17.23;;;9.07;;
7823;SDS011;3957;48.61947800;9.05303100;2023-08-17T03:10:01;17.05;;;8.73;;
7823;SDS011;3957;48.61947800;9.05303100;2023-08-17T03:11:02;24.88;;;10.05;;
7823;SDS011;3957;48.61947800;9.05303100;2023-08-17T03:12:04;19.60;;;11.05;;
7823;SDS011;3957;48.61947800;9.05303100;2023-08-17T03:13:06;15.00;;;9.63;;
7823;SDS011;3957;48.61947800;9.05303100;2023-08-17T03:14:07;24.58;;;10.02;;
7823;SDS011;3957;48.61947800;9.05303100;2023-08-17T03:15:10;19.92;;;9.10;;
7823;SDS011;3957;48.61947800;9.05303100;2023-08-17T03:16:11;31.42;;;13.02;;
7823;SDS011;3957;48.61947800;9.05303100;2023-08-17T03:17:13;17.10;;;9.70;;
7823;SDS011;3957;48.61947800;9.05303100;2023-08-17T03:18:15;20.42;;;12.25;;
7823;SDS011;3957;48.61947800;9.05303100;2023-08-17T03:19:16;25.70;;;11.43;;
7823;SDS011;3957;48.61947800;9.05303100;2023-08-17T03:20:19;23.08;;;11.60;;
7823;SDS011;3957;48.61947800;9.05303100;2023-08-17T03:21:20;33.35;;;12.90;;
7823;SDS011;3957;48.61947800;9.05303100;2023-08-17T03:22:22;17.40;;;10.20;;
7823;SDS011;3957;48.61947800;9.05303100;2023-08-17T03:23:24;26.42;;;12.55;;
7823;SDS011;3957;48.61947800;9.05303100;2023-08-17T03:24:26;24.73;;;11.45;;
7823;SDS011;3957;48.61947800;9.05303100;2023-08-17T03:25:29;19.98;;;11.18;;
7823;SDS011;3957;48.61947800;9.05303100;2023-08-17T03:26:32;25.00;;;11.15;;
7823;SDS011;3957;48.61947800;9.05303100;2023-08-17T03:27:33;26.95;;;12.32;;
7823;SDS011;3957;48.61947800;9.05303100;2023-08-17T03:28:36;19.75;;;10.73;;
7823;SDS011;3957;48.61947800;9.05303100;2023-08-17T03:29:38;31.38;;;11.80;;
7823;SDS011;3957;48.61947800;9.05303100;2023-08-17T03:30:40;22.10;;;10.57;;
7823;SDS011;3957;48.61947800;9.05303100;2023-08-17T03:31:41;27.30;;;10.68;;
7823;SDS011;3957;48.61947800;9.05303100;2023-08-17T03:32:43;20.80;;;9.98;;
7823;SDS011;3957;48.61947800;9.05303100;2023-08-17T03:33:45;20.35;;;10.23;;
7823;SDS011;3957;48.61947800;9.05303100;2023-08-17T03:34:47;21.10;;;10.15;;
7823;SDS011;3957;48.61947800;9.05303100;2023-08-17T03:35:49;17.15;;;9.88;;
7823;SDS011;3957;48.61947800;9.05303100;2023-08-17T03:36:51;15.55;;;9.32;;
7823;SDS011;3957;48.61947800;9.05303100;2023-08-17T03:37:52;26.70;;;10.88;;
7823;SDS011;3957;48.61947800;9.05303100;2023-08-17T03:38:54;16.02;;;9.13;;
7823;SDS011;3957;48.61947800;9.05303100;2023-08-17T03:39:56;20.52;;;10.38;;
7823;SDS011;3957;48.61947800;9.05303100;2023-08-17T03:40:58;26.73;;;11.57;;
7823;SDS011;3957;48.61947800;9.05303100;2023-08-17T03:42:00;19.05;;;10.48;;
7823;SDS011;3957;48.61947800;9.05303100;2023-08-17T03:43:01;16.98;;;9.60;;
7823;SDS011;3957;48.61947800;9.05303100;2023-08-17T03:44:03;38.28;;;12.00;;
7823;SDS011;3957;48.61947800;9.05303100;2023-08-17T03:45:07;20.17;;;10.90;;
7823;SDS011;3957;48.61947800;9.05303100;2023-08-17T03:46:09;19.57;;;9.70;;
7823;SDS011;3957;48.61947800;9.05303100;2023-08-17T03:47:10;13.80;;;8.57;;
7823;SDS011;3957;48.61947800;9.05303100;2023-08-17T03:48:12;12.75;;;8.23;;
7823;SDS011;3957;48.61947800;9.05303100;2023-08-17T03:49:14;19.42;;;10.38;;
7823;SDS011;3957;48.61947800;9.05303100;2023-08-17T03:50:15;26.83;;;10.63;;
7823;SDS011;3957;48.61947800;9.05303100;2023-08-17T03:51:17;29.90;;;11.68;;
7823;SDS011;3957;48.61947800;9.05303100;2023-08-17T03:52:19;17.08;;;9.13;;
7823;SDS011;3957;48.61947800;9.05303100;2023-08-17T03:53:22;15.38;;;8.70;;
7823;SDS011;3957;48.61947800;9.05303100;2023-08-17T03:54:24;12.15;;;7.97;;
7823;SDS011;3957;48.61947800;9.05303100;2023-08-17T03:55:25;13.82;;;8.00;;
7823;SDS011;3957;48.61947800;9.05303100;2023-08-17T03:56:27;14.52;;;8.48;;
7823;SDS011;3957;48.61947800;9.05303100;2023-08-17T03:57:30;12.48;;;7.32;;
7823;SDS011;3957;48.61947800;9.05303100;2023-08-17T03:58:34;13.37;;;7.60;;
7823;SDS011;3957;48.61947800;9.05303100;2023-08-17T03:59:36;11.00;;;7.70;;
7823;SDS011;3957;48.61947800;9.05303100;2023-08-17T04:00:38;11.93;;;7.50;;
7823;SDS011;3957;48.61947800;9.05303100;2023-08-17T04:01:41;12.38;;;7.53;;
7823;SDS011;3957;48.61947800;9.05303100;2023-08-17T04:02:42;13.00;;;7.60;;
7823;SDS011;3957;48.61947800;9.05303100;2023-08-17T04:03:49;15.10;;;8.93;;
7823;SDS011;3957;48.61947800;9.05303100;2023-08-17T04:04:51;27.35;;;9.85;;
7823;SDS011;3957;48.61947800;9.05303100;2023-08-17T04:05:52;16.33;;;8.88;;
7823;SDS011;3957;48.61947800;9.05303100;2023-08-17T04:06:54;16.25;;;8.73;;
7823;SDS011;3957;48.61947800;9.05303100;2023-08-17T04:07:57;14.77;;;8.82;;
7823;SDS011;3957;48.61947800;9.05303100;2023-08-17T04:09:03;14.98;;;8.00;;
7823;SDS011;3957;48.61947800;9.05303100;2023-08-17T04:10:05;19.63;;;8.32;;
7823;SDS011;3957;48.61947800;9.05303100;2023-08-17T04:11:07;26.48;;;9.13;;
7823;SDS011;3957;48.61947800;9.05303100;2023-08-17T04:12:08;13.00;;;7.90;;
7823;SDS011;3957;48.61947800;9.05303100;2023-08-17T04:13:10;13.32;;;7.68;;
7823;SDS011;3957;48.61947800;9.05303100;2023-08-17T04:14:12;13.98;;;7.90;;
7823;SDS011;3957;48.61947800;9.05303100;2023-08-17T04:15:15;14.98;;;7.63;;
7823;SDS011;3957;48.61947800;9.05303100;2023-08-17T04:16:16;11.07;;;7.30;;
7823;SDS011;3957;48.61947800;9.05303100;2023-08-17T04:17:18;10.98;;;7.22;;
7823;SDS011;3957;48.61947800;9.05303100;2023-08-17T04:18:20;19.98;;;8.80;;
7823;SDS011;3957;48.61947800;9.05303100;2023-08-17T04:19:21;19.42;;;8.80;;
7823;SDS011;3957;48.61947800;9.05303100;2023-08-17T04:20:23;27.67;;;9.57;;
7823;SDS011;3957;48.61947800;9.05303100;2023-08-17T04:21:26;18.00;;;8.35;;
7823;SDS011;3957;48.61947800;9.05303100;2023-08-17T04:22:28;12.63;;;7.78;;
7823;SDS011;3957;48.61947800;9.05303100;2023-08-17T04:23:29;11.48;;;7.30;;
7823;SDS011;3957;48.61947800;9.05303100;2023-08-17T04:24:31;12.02;;;7.22;;
7823;SDS011;3957;48.61947800;9.05303100;2023-08-17T04:25:33;12.35;;;7.82;;
7823;SDS011;3957;48.61947800;9.05303100;2023-08-17T04:26:34;13.70;;;6.93;;
7823;SDS011;3957;48.61947800;9.05303100;2023-08-17T04:27:36;9.38;;;6.72;;
7823;SDS011;3957;48.61947800;9.05303100;2023-08-17T04:28:37;20.77;;;9.30;;
7823;SDS011;3957;48.61947800;9.05303100;2023-08-17T04:29:39;11.30;;;7.53;;
7823;SDS011;3957;48.61947800;9.05303100;2023-08-17T04:30:41;11.88;;;7.13;;
7823;SDS011;3957;48.61947800;9.05303100;2023-08-17T04:31:43;13.65;;;7.65;;
7823;SDS011;3957;48.61947800;9.05303100;2023-08-17T04:32:45;22.55;;;9.05;;
7823;SDS011;3957;48.61947800;9.05303100;2023-08-17T04:33:54;17.65;;;9.07;;
7823;SDS011;3957;48.61947800;9.05303100;2023-08-17T04:34:55;9.70;;;6.68;;
7823;SDS011;3957;48.61947800;9.05303100;2023-08-17T04:35:57;11.80;;;7.53;;
7823;SDS011;3957;48.61947800;9.05303100;2023-08-17T04:37:00;12.93;;;7.93;;
7823;SDS011;3957;48.61947800;9.05303100;2023-08-17T04:38:02;26.58;;;9.13;;
7823;SDS011;3957;48.61947800;9.05303100;2023-08-17T04:39:04;20.30;;;8.77;;
7823;SDS011;3957;48.61947800;9.05303100;2023-08-17T04:40:06;23.33;;;8.88;;
7823;SDS011;3957;48.61947800;9.05303100;2023-08-17T04:41:08;9.50;;;6.90;;
7823;SDS011;3957;48.61947800;9.05303100;2023-08-17T04:42:10;40.40;;;9.93;;
7823;SDS011;3957;48.61947800;9.05303100;2023-08-17T04:43:13;17.50;;;7.45;;
7823;SDS011;3957;48.61947800;9.05303100;2023-08-17T04:44:14;21.15;;;8.57;;
7823;SDS011;3957;48.61947800;9.05303100;2023-08-17T04:45:16;11.18;;;7.88;;
7823;SDS011;3957;48.61947800;9.05303100;2023-08-17T04:46:21;21.27;;;7.53;;
7823;SDS011;3957;48.61947800;9.05303100;2023-08-17T04:47:23;15.20;;;7.65;;
7823;SDS011;3957;48.61947800;9.05303100;2023-08-17T04:48:25;20.52;;;8.75;;
7823;SDS011;3957;48.61947800;9.05303100;2023-08-17T04:49:26;19.33;;;8.10;;
7823;SDS011;3957;48.61947800;9.05303100;2023-08-17T04:50:28;21.23;;;8.60;;
7823;SDS011;3957;48.61947800;9.05303100;2023-08-17T04:51:30;27.17;;;8.77;;
7823;SDS011;3957;48.61947800;9.05303100;2023-08-17T04:52:32;15.55;;;8.20;;
7823;SDS011;3957;48.61947800;9.05303100;2023-08-17T04:53:33;13.50;;;7.80;;
7823;SDS011;3957;48.61947800;9.05303100;2023-08-17T04:54:35;34.10;;;9.38;;
7823;SDS011;3957;48.61947800;9.05303100;2023-08-17T04:55:37;10.43;;;7.25;;
7823;SDS011;3957;48.61947800;9.05303100;2023-08-17T04:56:39;23.70;;;8.57;;
7823;SDS011;3957;48.61947800;9.05303100;2023-08-17T04:57:40;16.27;;;8.68;;
7823;SDS011;3957;48.61947800;9.05303100;2023-08-17T04:58:44;18.38;;;8.50;;
7823;SDS011;3957;48.61947800;9.05303100;2023-08-17T04:59:47;12.85;;;7.60;;
7823;SDS011;3957;48.61947800;9.05303100;2023-08-17T05:00:50;13.90;;;8.02;;
7823;SDS011;3957;48.61947800;9.05303100;2023-08-17T05:01:52;10.52;;;7.18;;
7823;SDS011;3957;48.61947800;9.05303100;2023-08-17T05:02:55;8.88;;;6.47;;
7823;SDS011;3957;48.61947800;9.05303100;2023-08-17T05:04:00;13.40;;;6.78;;
7823;SDS011;3957;48.61947800;9.05303100;2023-08-17T05:05:02;11.30;;;6.63;;
7823;SDS011;3957;48.61947800;9.05303100;2023-08-17T05:06:06;10.13;;;6.20;;
7823;SDS011;3957;48.61947800;9.05303100;2023-08-17T05:07:07;14.10;;;7.13;;
7823;SDS011;3957;48.61947800;9.05303100;2023-08-17T05:08:09;18.75;;;7.05;;
7823;SDS011;3957;48.61947800;9.05303100;2023-08-17T05:09:11;26.38;;;9.93;;
7823;SDS011;3957;48.61947800;9.05303100;2023-08-17T05:10:14;14.43;;;7.57;;
7823;SDS011;3957;48.61947800;9.05303100;2023-08-17T05:11:16;23.10;;;8.27;;
7823;SDS011;3957;48.61947800;9.05303100;2023-08-17T05:12:18;37.55;;;9.80;;
7823;SDS011;3957;48.61947800;9.05303100;2023-08-17T05:13:20;19.95;;;8.55;;
7823;SDS011;3957;48.61947800;9.05303100;2023-08-17T05:14:21;9.43;;;6.15;;
7823;SDS011;3957;48.61947800;9.05303100;2023-08-17T05:15:23;15.13;;;7.60;;
7823;SDS011;3957;48.61947800;9.05303100;2023-08-17T05:16:25;17.45;;;7.75;;
7823;SDS011;3957;48.61947800;9.05303100;2023-08-17T05:17:27;14.18;;;7.28;;
7823;SDS011;3957;48.61947800;9.05303100;2023-08-17T05:18:29;17.63;;;8.43;;
7823;SDS011;3957;48.61947800;9.05303100;2023-08-17T05:19:31;10.73;;;6.95;;
7823;SDS011;3957;48.61947800;9.05303100;2023-08-17T05:20:33;23.25;;;7.93;;
7823;SDS011;3957;48.61947800;9.05303100;2023-08-17T05:21:36;12.15;;;7.32;;
7823;SDS011;3957;48.61947800;9.05303100;2023-08-17T05:22:37;9.02;;;6.20;;
7823;SDS011;3957;48.61947800;9.05303100;2023-08-17T05:23:39;10.85;;;7.47;;
7823;SDS011;3957;48.61947800;9.05303100;2023-08-17T05:24:41;19.85;;;8.48;;
7823;SDS011;3957;48.61947800;9.05303100;2023-08-17T05:25:45;9.70;;;7.10;;
7823;SDS011;3957;48.61947800;9.05303100;2023-08-17T05:26:48;10.07;;;6.35;;
7823;SDS011;3957;48.61947800;9.05303100;2023-08-17T05:27:50;9.68;;;6.78;;
7823;SDS011;3957;48.61947800;9.05303100;2023-08-17T05:28:51;12.20;;;7.03;;
7823;SDS011;3957;48.61947800;9.05303100;2023-08-17T05:29:53;15.93;;;8.30;;
7823;SDS011;3957;48.61947800;9.05303100;2023-08-17T05:30:55;7.57;;;5.90;;
7823;SDS011;3957;48.61947800;9.05303100;2023-08-17T05:31:58;17.23;;;7.88;;
7823;SDS011;3957;48.61947800;9.05303100;2023-08-17T05:33:01;8.35;;;6.28;;
7823;SDS011;3957;48.61947800;9.05303100;2023-08-17T05:34:03;9.60;;;6.50;;
7823;SDS011;3957;48.61947800;9.05303100;2023-08-17T05:35:05;9.15;;;6.25;;
7823;SDS011;3957;48.61947800;9.05303100;2023-08-17T05:36:07;13.18;;;7.30;;